createdAt,value
2022-08-12T00:00:08.379Z,25.40
2022-08-12T00:02:54.882Z,27.30
2022-08-12T00:05:57.180Z,25.20
2022-08-12T00:08:47.451Z,25.10
2022-08-12T00:11:33.977Z,25.10
2022-08-12T00:14:19.615Z,25.10
2022-08-12T00:17:06.035Z,25.10
2022-08-12T00:19:51.735Z,25.10
2022-08-12T00:22:37.839Z,25.10
2022-08-12T00:26:00.521Z,25.00
2022-08-12T00:28:31.580Z,25.00
2022-08-12T00:31:17.722Z,24.90
2022-08-12T00:34:02.959Z,24.90
2022-08-12T00:36:50.895Z,24.80
2022-08-12T00:39:36.558Z,24.80
2022-08-12T00:42:10.795Z,25.70
2022-08-12T00:44:41.393Z,24.60
2022-08-12T00:47:25.024Z,24.60
2022-08-12T00:49:54.934Z,26.30
2022-08-12T00:52:23.870Z,24.50
2022-08-12T00:54:53.703Z,24.40
2022-08-12T00:57:23.702Z,24.40
2022-08-12T00:59:57.221Z,24.30
2022-08-12T01:02:28.561Z,24.60
2022-08-12T01:05:16.617Z,24.20
2022-08-12T01:08:03.251Z,24.20
2022-08-12T01:10:50.873Z,24.20
2022-08-12T01:13:20.626Z,24.10
2022-08-12T01:15:52.201Z,24.00
2022-08-12T01:18:21.860Z,24.00
2022-08-12T01:20:57.521Z,27.00
2022-08-12T01:23:50.066Z,23.90
2022-08-12T01:26:21.072Z,23.70
2022-08-12T01:28:51.566Z,23.70
2022-08-12T01:31:21.515Z,23.70
2022-08-12T01:33:59.669Z,23.70
2022-08-12T01:36:29.226Z,23.70
2022-08-12T01:39:00.102Z,23.70
2022-08-12T01:41:31.848Z,23.60
2022-08-12T01:44:02.237Z,23.60
2022-08-12T01:46:45.255Z,23.60
2022-08-12T01:49:33.652Z,23.80
2022-08-12T01:52:21.773Z,23.50
2022-08-12T01:54:53.241Z,23.50
2022-08-12T01:57:57.620Z,23.40
2022-08-12T02:00:18.978Z,23.30
2022-08-12T02:03:05.507Z,23.20
2022-08-12T02:06:01.220Z,23.20
2022-08-12T02:08:55.304Z,23.10
2022-08-12T02:11:29.377Z,23.10
2022-08-12T02:14:22.644Z,23.10
2022-08-12T02:17:05.211Z,23.10
2022-08-12T02:19:48.739Z,23.00
2022-08-12T02:22:28.521Z,23.00
2022-08-12T02:25:02.444Z,23.00
2022-08-12T02:27:35.973Z,22.90
2022-08-12T02:30:08.825Z,22.90
2022-08-12T02:32:40.383Z,22.80
2022-08-12T02:35:11.322Z,22.80
2022-08-12T02:37:41.827Z,22.70
2022-08-12T02:40:12.331Z,22.70
2022-08-12T02:42:47.409Z,22.60
2022-08-12T02:45:21.337Z,22.50
2022-08-12T02:47:59.835Z,22.50
2022-08-12T02:50:32.352Z,22.50
2022-08-12T02:53:01.353Z,22.50
2022-08-12T02:55:36.070Z,22.60
2022-08-12T02:58:12.503Z,24.00
2022-08-12T03:00:45.085Z,22.50
2022-08-12T03:03:15.661Z,25.20
2022-08-12T03:05:49.243Z,22.40
2022-08-12T03:08:32.003Z,22.40
2022-08-12T03:11:06.078Z,22.40
2022-08-12T03:13:46.565Z,22.30
2022-08-12T03:16:16.123Z,22.20
2022-08-12T03:18:45.963Z,22.20
2022-08-12T03:21:16.564Z,22.20
2022-08-12T03:23:46.558Z,24.90
2022-08-12T03:26:15.583Z,22.10
2022-08-12T03:28:54.215Z,22.80
2022-08-12T03:31:26.023Z,22.00
2022-08-12T03:34:01.778Z,22.00
2022-08-12T03:36:33.876Z,21.90
2022-08-12T03:39:35.956Z,21.90
2022-08-12T03:42:17.213Z,21.90
2022-08-12T03:45:11.517Z,21.90
2022-08-12T03:48:06.318Z,21.90
2022-08-12T03:50:51.701Z,21.80
2022-08-12T03:53:44.705Z,21.80
2022-08-12T03:56:30.322Z,21.80
2022-08-12T03:59:18.616Z,21.70
2022-08-12T04:01:52.515Z,21.70
2022-08-12T04:04:23.570Z,21.70
2022-08-12T04:06:51.909Z,22.80
2022-08-12T04:09:22.266Z,21.60
2022-08-12T04:12:08.617Z,21.60
2022-08-12T04:14:37.680Z,21.50
2022-08-12T04:17:05.927Z,21.50
2022-08-12T04:19:35.269Z,21.40
2022-08-12T04:22:03.918Z,21.50
2022-08-12T04:24:34.993Z,21.50
2022-08-12T04:27:05.296Z,21.50
2022-08-12T04:30:29.550Z,21.50
2022-08-12T04:32:22.252Z,21.50
2022-08-12T04:34:51.799Z,21.50
2022-08-12T04:37:20.194Z,21.40
2022-08-12T04:39:49.174Z,21.40
2022-08-12T04:42:17.215Z,21.40
2022-08-12T04:44:45.310Z,21.40
2022-08-12T04:47:14.248Z,21.40
2022-08-12T04:49:44.151Z,21.40
2022-08-12T04:52:14.076Z,21.30
2022-08-12T04:54:43.779Z,21.30
2022-08-12T04:57:12.039Z,21.30
2022-08-12T04:59:46.746Z,21.30
2022-08-12T05:02:21.818Z,21.30
2022-08-12T05:04:51.392Z,21.20
2022-08-12T05:07:23.472Z,21.20
2022-08-12T05:10:00.007Z,21.20
2022-08-12T05:12:36.563Z,21.20
2022-08-12T05:15:19.484Z,21.30
2022-08-12T05:17:55.454Z,21.30
2022-08-12T05:20:25.770Z,21.30
2022-08-12T05:23:12.645Z,21.30
2022-08-12T05:25:43.008Z,21.40
2022-08-12T05:28:12.894Z,21.40
2022-08-12T05:30:42.508Z,21.40
2022-08-12T05:33:11.764Z,21.40
2022-08-12T05:35:42.943Z,21.50
2022-08-12T05:38:32.885Z,21.50
2022-08-12T05:41:01.982Z,21.50
2022-08-12T05:43:30.235Z,21.50
2022-08-12T05:45:58.106Z,21.50
2022-08-12T05:48:26.198Z,21.50
2022-08-12T05:50:54.023Z,21.60
2022-08-12T05:53:23.930Z,22.20
2022-08-12T05:55:53.092Z,21.60
2022-08-12T05:58:21.408Z,21.70
2022-08-12T06:00:49.451Z,21.80
2022-08-12T06:03:19.644Z,21.90
2022-08-12T06:05:55.691Z,22.00
2022-08-12T06:08:25.970Z,22.20
2022-08-12T06:10:56.999Z,22.10
2022-08-12T06:13:28.588Z,22.30
2022-08-12T06:16:14.757Z,22.20
2022-08-12T06:18:43.411Z,22.20
2022-08-12T06:21:12.760Z,22.30
2022-08-12T06:23:42.929Z,22.40
2022-08-12T06:26:12.904Z,22.50
2022-08-12T06:28:41.295Z,22.50
2022-08-12T06:35:23.932Z,22.70
2022-08-12T06:36:45.657Z,22.80
2022-08-12T06:39:16.168Z,22.80
2022-08-12T06:42:02.573Z,22.90
2022-08-12T06:44:50.530Z,23.00
2022-08-12T06:47:19.695Z,23.20
2022-08-12T06:49:48.488Z,24.00
2022-08-12T06:52:17.173Z,23.40
2022-08-12T06:54:46.367Z,23.50
2022-08-12T06:58:06.221Z,23.60
2022-08-12T07:00:02.174Z,23.70
2022-08-12T07:02:32.607Z,23.90
2022-08-12T07:05:04.394Z,23.90
2022-08-12T07:07:32.248Z,24.10
2022-08-12T07:10:07.650Z,24.20
2022-08-12T07:12:36.761Z,24.30
2022-08-12T07:15:05.456Z,24.40
2022-08-12T07:17:37.785Z,24.50
2022-08-12T07:20:08.192Z,24.60
2022-08-12T07:22:36.579Z,24.70
2022-08-12T07:25:24.117Z,24.90
2022-08-12T07:27:55.226Z,24.90
2022-08-12T07:30:23.975Z,25.00
2022-08-12T07:32:52.234Z,25.10
2022-08-12T07:35:20.589Z,25.80
2022-08-12T07:37:50.451Z,25.40
2022-08-12T07:40:21.171Z,25.60
2022-08-12T07:42:49.557Z,25.70
2022-08-12T07:45:17.918Z,25.90
2022-08-12T07:47:45.805Z,27.30
2022-08-12T07:50:16.858Z,26.10
2022-08-12T07:52:48.360Z,26.30
2022-08-12T07:55:19.562Z,26.40
2022-08-12T07:57:57.907Z,29.50
2022-08-12T08:00:26.770Z,26.70
2022-08-12T08:02:55.019Z,26.80
2022-08-12T08:05:24.642Z,26.90
2022-08-12T08:07:53.509Z,27.00
2022-08-12T08:10:22.971Z,27.10
2022-08-12T08:12:57.468Z,27.40
2022-08-12T08:15:51.133Z,27.40
2022-08-12T08:18:26.642Z,27.50
2022-08-12T08:20:57.148Z,28.00
2022-08-12T08:23:55.656Z,27.70
2022-08-12T08:26:28.507Z,27.80
2022-08-12T08:28:56.796Z,28.00
2022-08-12T08:31:24.779Z,28.10
2022-08-12T08:34:04.938Z,28.30
2022-08-12T08:36:44.707Z,28.40
2022-08-12T08:39:16.795Z,28.50
2022-08-12T08:42:17.580Z,28.70
2022-08-12T08:44:50.342Z,28.80
2022-08-12T08:47:26.605Z,28.90
2022-08-12T08:49:57.444Z,29.00
2022-08-12T08:52:39.495Z,29.10
2022-08-12T08:55:09.973Z,29.20
2022-08-12T08:57:43.979Z,29.40
2022-08-12T09:00:15.544Z,29.50
2022-08-12T09:02:49.515Z,29.60
2022-08-12T09:05:28.164Z,31.40
2022-08-12T09:08:13.174Z,29.90
2022-08-12T09:10:45.206Z,29.90
2022-08-12T09:14:12.208Z,31.60
2022-08-12T09:16:20.223Z,30.10
2022-08-12T09:18:52.524Z,30.30
2022-08-12T09:21:23.000Z,30.40
2022-08-12T09:23:57.004Z,30.60
2022-08-12T09:26:29.138Z,30.80
2022-08-12T09:29:00.650Z,30.90
2022-08-12T09:32:03.446Z,31.40
2022-08-12T09:34:26.845Z,31.20
2022-08-12T09:37:02.231Z,31.30
2022-08-12T09:40:04.493Z,31.40
2022-08-12T09:42:42.642Z,31.50
2022-08-12T09:46:05.405Z,34.70
2022-08-12T09:48:19.761Z,32.50
2022-08-12T09:50:55.687Z,31.80
2022-08-12T09:53:36.502Z,32.80
2022-08-12T09:57:00.361Z,32.30
2022-08-12T09:59:00.169Z,32.20
2022-08-12T10:01:34.358Z,32.20
2022-08-12T10:04:04.915Z,32.40
2022-08-12T10:06:36.321Z,32.40
2022-08-12T10:09:06.759Z,32.60
2022-08-12T10:12:10.443Z,32.70
2022-08-12T10:14:49.824Z,32.80
2022-08-12T10:17:24.058Z,32.90
2022-08-12T10:19:53.022Z,33.00
2022-08-12T10:22:38.079Z,33.10
2022-08-12T10:26:18.388Z,33.20
2022-08-12T10:28:32.323Z,33.30
2022-08-12T10:31:16.284Z,33.50
2022-08-12T10:34:05.195Z,33.60
2022-08-12T10:36:40.519Z,34.50
2022-08-12T10:40:00.847Z,33.70
2022-08-12T10:42:28.993Z,33.70
2022-08-12T10:45:17.093Z,33.80
2022-08-12T10:48:07.323Z,33.90
2022-08-12T10:51:02.097Z,34.00
2022-08-12T10:53:45.665Z,34.10
2022-08-12T10:56:15.415Z,34.20
2022-08-12T10:58:46.995Z,36.80
2022-08-12T11:01:50.253Z,34.40
2022-08-12T11:04:27.679Z,34.50
2022-08-12T11:07:08.079Z,34.60
2022-08-12T11:09:58.367Z,34.60
2022-08-12T11:12:55.346Z,34.80
2022-08-12T11:15:32.778Z,34.80
2022-08-12T11:18:18.585Z,34.90
2022-08-12T11:20:48.359Z,35.00
2022-08-12T11:23:25.898Z,36.10
2022-08-12T11:26:06.749Z,35.00
2022-08-12T11:28:36.886Z,35.00
2022-08-12T11:31:06.745Z,35.00
2022-08-12T11:34:06.771Z,35.20
2022-08-12T11:36:26.188Z,35.30
2022-08-12T11:38:55.752Z,35.60
2022-08-12T11:41:28.017Z,35.40
2022-08-12T11:44:02.003Z,35.50
2022-08-12T11:46:51.153Z,37.50
2022-08-12T11:49:32.001Z,35.60
2022-08-12T11:52:02.684Z,35.60
2022-08-12T11:54:33.468Z,35.60
2022-08-12T11:57:03.024Z,35.70
2022-08-12T12:02:38.007Z,36.60
2022-08-12T12:05:06.850Z,35.60
2022-08-12T12:08:38.803Z,35.60
2022-08-12T12:10:24.083Z,35.60
2022-08-12T12:12:51.954Z,35.70
2022-08-12T12:15:25.343Z,38.30
2022-08-12T12:18:19.977Z,35.90
2022-08-12T12:20:50.781Z,35.90
2022-08-12T12:23:29.286Z,36.00
2022-08-12T12:26:07.341Z,36.00
2022-08-12T12:28:39.783Z,36.10
2022-08-12T12:31:15.262Z,36.40
2022-08-12T12:33:57.158Z,36.10
2022-08-12T12:36:30.125Z,36.20
2022-08-12T12:38:59.912Z,36.30
2022-08-12T12:42:13.475Z,36.30
2022-08-12T12:44:30.054Z,36.40
2022-08-12T12:47:29.240Z,36.40
2022-08-12T12:49:54.367Z,38.70
2022-08-12T12:52:26.770Z,36.60
2022-08-12T12:54:55.731Z,36.60
2022-08-12T12:57:58.980Z,36.70
2022-08-12T13:00:16.705Z,36.70
2022-08-12T13:02:46.039Z,36.70
2022-08-12T13:05:27.713Z,36.80
2022-08-12T13:08:01.104Z,36.70
2022-08-12T13:10:36.689Z,36.70
2022-08-12T13:14:07.188Z,39.00
2022-08-12T13:15:59.438Z,39.30
2022-08-12T13:18:31.438Z,36.90
2022-08-12T13:20:59.864Z,36.90
2022-08-12T13:23:37.120Z,37.80
2022-08-12T13:26:07.744Z,37.00
2022-08-12T13:28:45.622Z,37.00
2022-08-12T13:31:22.081Z,37.10
2022-08-12T13:34:33.656Z,37.20
2022-08-12T13:36:42.170Z,37.10
2022-08-12T13:39:10.595Z,37.10
2022-08-12T13:41:38.972Z,37.20
2022-08-12T13:44:11.669Z,40.00
2022-08-12T13:46:42.143Z,37.10
2022-08-12T13:49:17.481Z,37.10
2022-08-12T13:52:01.532Z,37.40
2022-08-12T13:54:29.773Z,39.30
2022-08-12T13:56:58.042Z,37.20
2022-08-12T13:59:27.372Z,37.30
2022-08-12T14:01:56.644Z,37.30
2022-08-12T14:04:25.028Z,37.30
2022-08-12T14:06:55.424Z,37.40
2022-08-12T14:09:23.269Z,37.40
2022-08-12T14:11:59.902Z,37.60
2022-08-12T14:14:31.588Z,37.40
2022-08-12T14:17:10.296Z,37.50
2022-08-12T14:19:47.276Z,37.60
2022-08-12T14:22:20.695Z,37.50
2022-08-12T14:24:53.875Z,37.50
2022-08-12T14:28:03.301Z,37.70
2022-08-12T14:30:16.051Z,37.80
2022-08-12T14:32:45.320Z,37.90
2022-08-12T14:35:13.439Z,38.00
2022-08-12T14:37:56.137Z,38.10
2022-08-12T14:40:27.798Z,38.20
2022-08-12T14:42:57.291Z,38.30
2022-08-12T14:45:45.077Z,39.20
2022-08-12T14:48:16.566Z,38.60
2022-08-12T14:51:03.156Z,38.70
2022-08-12T14:59:56.501Z,38.90
2022-08-12T15:02:21.008Z,39.00
2022-08-12T15:04:56.043Z,39.20
2022-08-12T15:07:33.889Z,39.50
2022-08-12T15:10:14.880Z,39.30
2022-08-12T15:12:58.299Z,39.40
2022-08-12T15:15:26.152Z,39.40
2022-08-12T15:18:02.470Z,39.50
2022-08-12T15:20:37.369Z,39.40
2022-08-12T15:23:17.815Z,39.40
2022-08-12T15:26:02.668Z,39.20
2022-08-12T15:28:33.783Z,39.00
2022-08-12T15:31:03.052Z,39.20
2022-08-12T15:33:51.191Z,39.30
2022-08-12T15:36:40.754Z,39.50
2022-08-12T15:39:17.212Z,39.70
2022-08-12T15:41:49.470Z,39.90
2022-08-12T15:44:37.941Z,40.00
2022-08-12T15:47:07.093Z,40.20
2022-08-12T15:49:54.675Z,40.30
2022-08-12T15:52:28.125Z,40.40
2022-08-12T15:54:58.790Z,40.50
2022-08-12T15:57:27.374Z,40.50
2022-08-12T16:00:06.849Z,40.40
2022-08-12T16:02:41.997Z,40.50
2022-08-12T16:06:12.030Z,40.50
2022-08-12T16:08:15.192Z,40.60
2022-08-12T16:10:45.814Z,40.60
2022-08-12T16:13:18.237Z,44.30
2022-08-12T16:16:03.288Z,40.70
2022-08-12T16:18:34.397Z,40.80
2022-08-12T16:21:04.159Z,40.70
2022-08-12T16:23:52.246Z,40.70
2022-08-12T16:26:27.614Z,40.70
2022-08-12T16:29:15.286Z,40.70
2022-08-12T16:31:44.489Z,41.60
2022-08-12T16:34:39.936Z,40.80
2022-08-12T16:37:07.186Z,41.00
2022-08-12T16:40:00.351Z,41.00
2022-08-12T16:42:27.772Z,41.00
2022-08-12T16:44:57.051Z,40.90
2022-08-12T16:47:27.147Z,40.60
2022-08-12T16:49:57.592Z,40.30
2022-08-12T16:52:27.556Z,39.90
2022-08-12T16:54:55.437Z,39.60
2022-08-12T16:57:34.935Z,38.90
2022-08-12T17:00:16.071Z,38.60
2022-08-12T17:02:44.546Z,38.30
2022-08-12T17:05:25.046Z,38.00
2022-08-12T17:08:01.578Z,37.80
2022-08-12T17:10:36.292Z,37.60
2022-08-12T17:13:09.764Z,37.30
2022-08-12T17:15:57.267Z,37.20
2022-08-12T17:18:42.806Z,37.00
2022-08-12T17:21:19.581Z,36.80
2022-08-12T17:23:53.368Z,36.60
2022-08-12T17:26:28.015Z,36.50
2022-08-12T17:28:57.548Z,36.30
2022-08-12T17:32:00.381Z,36.70
2022-08-12T17:34:33.737Z,36.00
2022-08-12T17:37:04.848Z,36.90
2022-08-12T17:40:15.210Z,35.80
2022-08-12T17:42:32.759Z,35.70
2022-08-12T17:45:18.575Z,35.60
2022-08-12T17:48:01.017Z,35.50
2022-08-12T17:50:32.222Z,35.50
2022-08-12T17:53:02.946Z,35.40
2022-08-12T17:55:43.269Z,35.30
2022-08-12T17:58:14.078Z,35.20
2022-08-12T18:00:45.141Z,35.20
2022-08-12T18:04:05.055Z,35.00
2022-08-12T18:06:14.121Z,35.00
2022-08-12T18:08:53.769Z,35.00
2022-08-12T18:12:06.541Z,35.00
2022-08-12T18:14:31.561Z,35.00
2022-08-12T18:17:02.414Z,35.00
2022-08-12T18:20:04.159Z,34.90
2022-08-12T18:22:21.735Z,34.80
2022-08-12T18:25:02.707Z,36.30
2022-08-12T18:27:46.785Z,34.80
2022-08-12T18:30:20.793Z,34.70
2022-08-12T18:33:03.203Z,34.90
2022-08-12T18:35:47.866Z,34.40
2022-08-12T18:38:22.287Z,34.40
2022-08-12T18:41:09.481Z,36.30
2022-08-12T18:43:57.666Z,34.40
2022-08-12T18:46:56.252Z,34.30
2022-08-12T18:49:30.756Z,34.20
2022-08-12T18:52:05.450Z,34.20
2022-08-12T18:54:37.407Z,34.10
2022-08-12T18:57:16.581Z,34.00
2022-08-12T19:00:01.273Z,34.00
2022-08-12T19:02:39.958Z,33.90
2022-08-12T19:05:10.772Z,33.80
2022-08-12T19:07:49.605Z,33.80
2022-08-12T19:10:26.332Z,33.70
2022-08-12T19:13:15.735Z,33.70
2022-08-12T19:15:48.399Z,33.70
2022-08-12T19:18:16.939Z,33.50
2022-08-12T19:20:48.094Z,33.50
2022-08-12T19:23:21.457Z,36.20
2022-08-12T19:25:59.786Z,34.40
2022-08-12T19:28:34.409Z,33.20
2022-08-12T19:31:44.656Z,33.20
2022-08-12T19:35:24.169Z,33.10
2022-08-12T19:37:17.359Z,33.10
2022-08-12T19:40:10.004Z,32.90
2022-08-12T19:42:38.911Z,32.80
2022-08-12T19:45:12.037Z,32.70
2022-08-12T19:47:43.363Z,32.60
2022-08-12T19:50:12.022Z,32.50
2022-08-12T19:52:40.851Z,32.50
2022-08-12T19:55:19.375Z,32.30
2022-08-12T19:58:01.632Z,32.30
2022-08-12T20:00:34.863Z,35.50
2022-08-12T20:03:06.275Z,31.70
2022-08-12T20:06:06.240Z,31.60
2022-08-12T20:08:31.322Z,31.70
2022-08-12T20:12:09.715Z,32.90
2022-08-12T20:14:01.364Z,31.50
2022-08-12T20:16:56.417Z,31.40
2022-08-12T20:19:52.413Z,31.40
2022-08-12T20:22:24.217Z,31.20
2022-08-12T20:25:01.668Z,31.20
2022-08-12T20:28:04.061Z,31.00
2022-08-12T20:30:37.269Z,32.80
2022-08-12T20:33:18.546Z,30.80
2022-08-12T20:36:13.838Z,30.50
2022-08-12T20:38:42.144Z,31.30
2022-08-12T20:41:16.659Z,30.80
2022-08-12T20:43:49.251Z,32.10
2022-08-12T20:46:17.990Z,30.50
2022-08-12T20:48:55.291Z,29.90
2022-08-12T20:51:40.620Z,29.90
2022-08-12T20:54:18.375Z,31.30
2022-08-12T20:56:47.248Z,29.70
2022-08-12T20:59:19.942Z,29.70
2022-08-12T21:01:53.987Z,29.60
2022-08-12T21:04:40.288Z,30.60
2022-08-12T21:07:13.818Z,30.50
2022-08-12T21:09:44.195Z,29.30
2022-08-12T21:12:27.632Z,29.70
2022-08-12T21:15:17.256Z,29.70
2022-08-12T21:18:08.638Z,30.60
2022-08-12T21:20:37.025Z,29.00
2022-08-12T21:23:07.522Z,28.80
2022-08-12T21:25:45.014Z,30.00
2022-08-12T21:28:14.025Z,28.70
2022-08-12T21:30:54.841Z,28.60
2022-08-12T21:33:31.465Z,28.50
2022-08-12T21:36:00.943Z,28.40
2022-08-12T21:38:40.293Z,28.40
2022-08-12T21:41:09.321Z,28.30
2022-08-12T21:43:44.682Z,28.20
2022-08-12T21:46:35.407Z,29.10
2022-08-12T21:49:05.550Z,29.60
2022-08-12T21:51:35.325Z,27.80
2022-08-12T21:54:21.646Z,27.60
2022-08-12T21:56:50.213Z,27.60
2022-08-12T21:59:20.202Z,27.60
2022-08-12T22:01:49.696Z,29.60
2022-08-12T22:04:36.651Z,27.50
2022-08-12T22:07:06.098Z,27.50
2022-08-12T22:09:42.646Z,28.80
2022-08-12T22:12:29.560Z,27.30
2022-08-12T22:14:57.442Z,27.20
2022-08-12T22:17:33.811Z,29.10
2022-08-12T22:20:21.728Z,27.10
2022-08-12T22:22:53.788Z,27.00
2022-08-12T22:25:27.544Z,26.80
2022-08-12T22:28:24.736Z,29.60
2022-08-12T22:31:15.632Z,26.60
2022-08-12T22:33:54.388Z,26.60
2022-08-12T22:36:29.468Z,26.50
2022-08-12T22:38:58.902Z,26.50
2022-08-12T22:41:57.963Z,26.40
2022-08-12T22:44:54.792Z,29.30
2022-08-12T22:47:53.280Z,26.30
2022-08-12T22:50:26.926Z,26.20
2022-08-12T22:53:14.712Z,28.80
2022-08-12T22:55:59.285Z,26.10
2022-08-12T22:58:32.138Z,25.90
2022-08-12T23:01:01.903Z,25.90
2022-08-12T23:03:48.348Z,25.60
2022-08-12T23:06:21.154Z,25.60
2022-08-12T23:08:49.760Z,26.80
2022-08-12T23:11:23.573Z,28.00
2022-08-12T23:13:56.319Z,25.30
2022-08-12T23:16:31.035Z,25.30
2022-08-12T23:19:10.639Z,27.90
2022-08-12T23:22:06.384Z,25.30
2022-08-12T23:24:39.422Z,28.20
2022-08-12T23:27:50.597Z,25.20
2022-08-12T23:30:18.514Z,25.20
2022-08-12T23:32:54.264Z,26.40
2022-08-12T23:35:45.296Z,25.00
2022-08-12T23:38:30.843Z,25.00
2022-08-12T23:41:01.581Z,24.90
2022-08-12T23:43:38.368Z,24.90
2022-08-12T23:46:10.467Z,24.80
2022-08-12T23:48:38.852Z,24.80
2022-08-12T23:51:22.833Z,24.70
2022-08-12T23:53:56.467Z,24.70
2022-08-12T23:56:32.710Z,24.60
2022-08-12T23:59:00.762Z,24.50
